LFXH weather

Public forecast

Using degrees Celsius for public forecast. Weather courtesy of forecast.io.

Closest aviation weather report (METAR) to Le Valdahon Air Base

Closest report is Les Eplatures Airport, 18.8 nm (34.7 km) ESE. Retrieved 2020/08/11 10:20 UTC (4 minutes ago):

LSGC 111020Z 17004KT 110V230 CAVOK 26/13 Q1021 RMK CAUTION DENSITY ALTITUDE

Closest aviation forecast (TAF) to Le Valdahon Air Base

Closest forecast is Payerne Air Base, 30.2 nm (55.9 km) SE. Retrieved 2020/08/11 10:00 UTC (24 minutes ago):

TAF LSMP 110925Z 1110/1216 VRB03KT CAVOK PROB30 TEMPO 1206/1210 TSRA FEW060CB